Time;durP1;ratioP1;P1;durP2;ratioP2;P2;SDS_P1;SDS_P2;PMS_P1;PMS_P2;Temp;Humidity;BMP_temperature;BMP_pressure;BME280_temperature;BME280_humidity;BME280_pressure;Samples;Min_cycle;Max_cycle;Signal;HPM_P1;HPM_P2
2023/01/27 00:01:04;;;;;;;7.70;6.00;;;;;;;0.85;65.72;99819.34;5083472;28;20265;-82
2023/01/27 00:03:30;;;;;;;10.53;6.93;;;;;;;0.86;65.72;99817.59;5085190;28;20205;-79
2023/01/27 00:05:57;;;;;;;13.50;7.70;;;;;;;0.88;65.92;99810.66;5083419;28;21319;-80
2023/01/27 00:08:22;;;;;;;12.13;7.13;;;;;;;0.90;65.85;99811.50;5086186;28;20220;-80
2023/01/27 00:13:25;;;;;;;11.20;6.73;;;;;;;0.90;66.16;99806.31;5080732;28;20262;-80
2023/01/27 00:13:36;;;;;;;10.73;6.88;;;;;;;0.86;66.28;99807.25;5081804;28;20214;-79
2023/01/27 00:16:02;;;;;;;13.47;6.47;;;;;;;0.85;66.16;99800.41;5080354;28;20780;-79
2023/01/27 00:18:27;;;;;;;10.73;7.20;;;;;;;0.83;65.99;99800.41;5086745;28;20211;-79
2023/01/27 00:26:21;;;;;;;14.68;8.90;;;;;;;0.78;67.09;99803.97;5082214;28;20231;-78
2023/01/27 00:28:47;;;;;;;13.83;7.93;;;;;;;0.76;67.04;99804.03;5081788;28;20667;-78
2023/01/27 00:34:09;;;;;;;14.25;9.38;;;;;;;0.77;67.29;99799.69;5063799;28;21000;-78
2023/01/27 00:36:40;;;;;;;10.40;8.40;;;;;;;0.77;67.56;99807.47;5083688;28;20246;-78
2023/01/27 00:39:07;;;;;;;19.33;9.13;;;;;;;0.77;67.82;99795.38;5064131;28;20295;-78
2023/01/27 00:41:34;;;;;;;12.50;7.63;;;;;;;0.74;68.00;99800.63;5083524;28;20309;-78
2023/01/27 00:44:00;;;;;;;12.48;8.60;;;;;;;0.75;67.98;99798.88;5082697;28;20283;-78
2023/01/27 00:46:26;;;;;;;11.75;7.65;;;;;;;0.75;67.97;99793.69;5065946;28;20200;-78
2023/01/27 00:48:52;;;;;;;18.03;9.23;;;;;;;0.74;68.14;99789.44;5084468;28;20188;-78
2023/01/27 00:51:19;;;;;;;10.77;7.50;;;;;;;0.73;68.05;99798.94;5064255;28;20232;-78
2023/01/27 00:53:44;;;;;;;11.90;8.63;;;;;;;0.71;68.50;99787.75;5083772;28;20191;-78
2023/01/27 00:56:10;;;;;;;21.13;9.20;;;;;;;0.72;68.63;99792.03;5083894;28;20230;-78
2023/01/27 00:58:36;;;;;;;10.15;7.22;;;;;;;0.69;68.69;99797.28;5083953;28;20569;-78
2023/01/27 01:01:04;;;;;;;17.53;7.87;;;;;;;0.68;68.88;99797.31;5081976;28;20896;-78
2023/01/27 01:03:32;;;;;;;21.23;11.93;;;;;;;0.69;68.84;99801.59;5060999;28;20192;-78
2023/01/27 01:06:00;;;;;;;15.23;10.95;;;;;;;0.68;68.85;99800.75;5082249;28;20200;-78
2023/01/27 01:08:28;;;;;;;15.05;9.20;;;;;;;0.66;69.27;99805.09;5060709;28;20217;-78
2023/01/27 01:10:54;;;;;;;12.23;8.48;;;;;;;0.61;69.11;99800.00;5063349;28;20441;-78
2023/01/27 01:13:20;;;;;;;14.43;9.00;;;;;;;0.62;69.50;99798.25;5063199;28;20668;-78
2023/01/27 01:15:46;;;;;;;12.13;7.95;;;;;;;0.60;69.38;99800.06;5081488;28;20267;-78
2023/01/27 01:18:11;;;;;;;14.80;8.07;;;;;;;0.58;69.06;99806.97;5082781;28;20605;-78
2023/01/27 01:20:43;;;;;;;11.77;8.00;;;;;;;0.55;69.49;99802.72;5081784;28;20221;-78
2023/01/27 01:23:09;;;;;;;13.45;7.85;;;;;;;0.53;69.79;99801.88;5084059;28;20250;-78
2023/01/27 01:25:35;;;;;;;11.80;8.07;;;;;;;0.56;69.66;99806.16;5080733;28;20200;-83
2023/01/27 01:28:02;;;;;;;17.67;9.43;;;;;;;0.56;69.71;99811.31;5086944;28;20324;-79
2023/01/27 01:30:28;;;;;;;14.13;8.40;;;;;;;0.55;69.68;99802.72;5087936;28;21250;-82
2023/01/27 01:32:53;;;;;;;14.03;7.30;;;;;;;0.56;69.82;99806.16;5089255;28;20232;-79
2023/01/27 01:35:19;;;;;;;18.00;10.85;;;;;;;0.60;70.04;99802.63;5084850;28;21095;-80
2023/01/27 01:37:45;;;;;;;17.92;9.27;;;;;;;0.63;70.17;99803.41;5068364;28;20696;-79
2023/01/27 01:40:11;;;;;;;16.23;8.23;;;;;;;0.66;70.07;99798.19;5086147;28;20207;-79
2023/01/27 01:42:51;;;;;;;14.32;8.45;;;;;;;0.66;69.71;99787.00;5087312;28;20220;-79
2023/01/27 01:45:43;;;;;;;14.75;8.68;;;;;;;0.66;69.79;99792.16;5070674;28;20299;-81
2023/01/27 01:48:12;;;;;;;17.45;8.15;;;;;;;0.67;69.71;99788.69;5087426;28;20251;-81
2023/01/27 01:50:41;;;;;;;13.55;6.72;;;;;;;0.69;69.78;99784.34;5068572;28;20219;-80
2023/01/27 01:53:08;;;;;;;12.73;7.80;;;;;;;0.68;69.73;99790.41;5086197;28;20204;-79
2023/01/27 01:55:36;;;;;;;14.07;7.57;;;;;;;0.68;69.72;99786.97;5069069;28;20257;-79
2023/01/27 01:58:05;;;;;;;15.32;7.88;;;;;;;0.65;69.75;99786.16;5091095;28;20258;-79
2023/01/27 02:00:32;;;;;;;13.50;8.40;;;;;;;0.65;69.71;99775.81;5069755;28;20196;-79
2023/01/27 02:02:57;;;;;;;13.07;7.43;;;;;;;0.66;69.70;99774.06;5087796;28;20549;-81
2023/01/27 02:05:33;;;;;;;13.75;8.10;;;;;;;0.67;69.69;99775.75;5068515;28;20234;-79
2023/01/27 02:08:25;;;;;;;16.10;9.02;;;;;;;0.69;70.09;99770.56;5087592;28;20214;-81
2023/01/27 02:10:53;;;;;;;12.70;8.15;;;;;;;0.71;69.78;99767.06;5080768;28;21777;-82
2023/01/27 02:13:19;;;;;;;13.93;8.50;;;;;;;0.70;69.86;99764.50;5065080;28;20203;-79
2023/01/27 02:15:44;;;;;;;12.63;8.90;;;;;;;0.68;69.93;99767.13;5086312;28;20273;-79
2023/01/27 02:18:10;;;;;;;19.17;9.30;;;;;;;0.66;69.92;99764.56;5083419;28;21331;-80
2023/01/27 02:20:41;;;;;;;17.37;10.07;;;;;;;0.67;69.84;99765.41;5066198;28;20208;-80
2023/01/27 02:23:44;;;;;;;17.02;9.98;;;;;;;0.68;70.04;99761.13;5082940;28;20247;-81
2023/01/27 02:26:19;;;;;;;11.35;8.23;;;;;;;0.67;70.15;99760.25;5085057;28;20931;-82
2023/01/27 02:28:53;;;;;;;16.70;8.40;;;;;;;0.69;70.09;99755.06;5069228;28;20203;-80
2023/01/27 02:31:20;;;;;;;16.95;9.25;;;;;;;0.71;69.91;99755.88;5066936;28;20229;-80
2023/01/27 02:33:47;;;;;;;13.57;8.45;;;;;;;0.70;70.04;99757.59;5067867;28;20558;-79
2023/01/27 02:36:14;;;;;;;14.40;10.90;;;;;;;0.71;70.09;99756.72;5069061;28;20318;-79
2023/01/27 02:38:53;;;;;;;10.55;6.53;;;;;;;0.72;70.31;99765.34;5083490;28;20627;-81
2023/01/27 02:41:33;;;;;;;14.25;8.63;;;;;;;0.72;70.47;99761.00;5067523;28;20228;-79
2023/01/27 02:43:59;;;;;;;15.85;9.35;;;;;;;0.72;70.37;99761.00;5067085;28;20200;-80
2023/01/27 02:46:25;;;;;;;14.38;8.40;;;;;;;0.73;70.29;99754.09;5065505;28;20199;-80
2023/01/27 02:48:51;;;;;;;14.57;9.57;;;;;;;0.73;70.08;99760.13;5085350;28;20204;-82
2023/01/27 02:51:17;;;;;;;12.37;8.57;;;;;;;0.70;70.45;99757.59;5087233;28;20469;-80
2023/01/27 02:53:43;;;;;;;13.45;8.50;;;;;;;0.69;70.43;99758.50;5066390;28;20609;-79
2023/01/27 02:56:09;;;;;;;13.55;9.18;;;;;;;0.71;70.47;99750.72;5085109;28;20357;-79
2023/01/27 02:58:34;;;;;;;14.17;7.93;;;;;;;0.73;70.58;99749.81;5083843;28;20205;-80
2023/01/27 03:01:13;;;;;;;19.60;7.95;;;;;;;0.76;70.43;99748.88;5051973;28;20239;-79
2023/01/27 03:03:48;;;;;;;12.57;8.65;;;;;;;0.79;70.45;99754.00;5086404;28;20806;-80
2023/01/27 03:06:17;;;;;;;11.88;7.55;;;;;;;0.80;70.16;99753.09;5067600;28;20234;-80
2023/01/27 03:08:43;;;;;;;13.40;7.73;;;;;;;0.81;70.47;99759.94;5041299;28;20274;-80
2023/01/27 03:11:09;;;;;;;16.05;8.40;;;;;;;0.82;70.45;99759.09;5064042;28;20288;-82
2023/01/27 03:13:37;;;;;;;17.30;8.32;;;;;;;0.79;70.21;99762.59;5067478;28;20290;-80
2023/01/27 03:18:50;;;;;;;13.32;8.65;;;;;;;0.72;70.52;99767.91;5066844;28;20287;-80
2023/01/27 03:21:17;;;;;;;15.85;9.35;;;;;;;0.69;70.64;99757.66;5066807;28;20340;-80
2023/01/27 03:23:44;;;;;;;20.23;10.15;;;;;;;0.70;70.77;99760.19;5069894;28;20294;-79
2023/01/27 03:26:11;;;;;;;13.35;9.45;;;;;;;0.72;70.65;99765.34;5070738;28;20216;-79
2023/01/27 03:28:40;;;;;;;15.65;10.10;;;;;;;0.72;70.72;99768.75;5068520;28;20757;-82
2023/01/27 03:31:18;;;;;;;16.42;8.73;;;;;;;0.72;70.84;99765.34;5068951;28;20222;-81
2023/01/27 03:33:59;;;;;;;12.95;7.20;;;;;;;0.71;70.81;99761.06;5086009;28;20280;-81
2023/01/27 03:47:25;;;;;;;15.50;8.48;;;;;;;0.71;71.04;99758.47;5094188;28;20189;-82
2023/01/27 03:49:51;;;;;;;14.57;8.10;;;;;;;0.72;71.07;99752.41;5072926;28;20241;-82
2023/01/27 03:52:16;;;;;;;15.20;9.10;;;;;;;0.75;70.83;99760.94;5092901;28;20224;-81
2023/01/27 03:54:41;;;;;;;15.53;9.10;;;;;;;0.78;70.86;99760.88;5095689;28;20199;-80
2023/01/27 03:57:07;;;;;;;20.03;10.40;;;;;;;0.80;70.95;99768.59;5074364;28;20216;-81
2023/01/27 03:59:33;;;;;;;19.52;10.25;;;;;;;0.81;71.07;99753.06;5073424;28;20263;-80
2023/01/27 04:07:28;;;;;;;16.88;8.55;;;;;;;0.83;70.76;99763.38;5092902;28;20195;-81
2023/01/27 04:09:54;;;;;;;19.87;9.40;;;;;;;0.82;71.03;99764.25;5092777;28;20200;-80
2023/01/27 04:12:20;;;;;;;13.17;9.27;;;;;;;0.78;70.98;99771.22;5091721;28;20223;-80
2023/01/27 04:14:45;;;;;;;13.67;8.27;;;;;;;0.78;70.98;99771.22;5090662;28;20396;-80
2023/01/27 04:17:13;;;;;;;14.20;8.73;;;;;;;0.80;71.19;99784.13;5092783;28;20238;-80
2023/01/27 04:19:38;;;;;;;16.45;9.88;;;;;;;0.81;71.32;99775.47;5091406;28;20208;-82
2023/01/27 04:22:05;;;;;;;18.03;10.30;;;;;;;0.84;71.09;99778.03;5072737;28;20244;-81
2023/01/27 04:24:31;;;;;;;16.80;10.95;;;;;;;0.84;71.01;99773.69;5088772;28;20198;-80
2023/01/27 04:26:59;;;;;;;15.90;10.23;;;;;;;0.83;70.96;99784.91;5072229;28;20188;-80
2023/01/27 04:29:28;;;;;;;16.83;9.77;;;;;;;0.84;71.21;99778.84;5088501;28;20262;-81
2023/01/27 04:31:56;;;;;;;12.38;8.02;;;;;;;0.87;71.22;99770.19;5089771;28;20293;-80
2023/01/27 04:34:22;;;;;;;17.27;12.18;;;;;;;0.83;71.26;99768.53;5091255;28;20468;-81
2023/01/27 04:36:47;;;;;;;12.70;9.10;;;;;;;0.81;71.29;99767.72;5090626;28;20680;-80
2023/01/27 04:39:14;;;;;;;15.07;9.47;;;;;;;0.80;71.49;99773.78;5093868;28;20557;-80
2023/01/27 04:41:39;;;;;;;13.85;9.30;;;;;;;0.78;71.70;99780.72;5094837;28;20232;-80
2023/01/27 04:44:05;;;;;;;18.17;8.97;;;;;;;0.77;71.43;99776.44;5092186;28;20214;-81
2023/01/27 04:46:31;;;;;;;15.80;10.50;;;;;;;0.77;71.73;99773.84;5093542;28;20218;-80
2023/01/27 04:48:57;;;;;;;19.33;10.23;;;;;;;0.79;71.58;99775.53;5094132;28;20200;-80
2023/01/27 04:51:22;;;;;;;15.60;9.10;;;;;;;0.80;71.21;99778.94;5095669;28;20308;-81
2023/01/27 04:53:48;;;;;;;17.17;8.90;;;;;;;0.80;71.49;99774.63;5095846;28;20243;-82
2023/01/27 04:56:29;;;;;;;20.90;10.60;;;;;;;0.80;71.34;99779.78;5090005;28;20230;-80
2023/01/27 04:58:58;;;;;;;20.40;9.18;;;;;;;0.82;71.34;99778.03;5089421;28;20289;-80
2023/01/27 05:01:24;;;;;;;20.02;9.68;;;;;;;0.82;71.26;99778.03;5092149;28;20221;-80
2023/01/27 05:03:49;;;;;;;17.02;10.07;;;;;;;0.84;71.24;99780.59;5095781;28;20460;-82
2023/01/27 05:06:15;;;;;;;16.37;8.87;;;;;;;0.84;71.37;99772.84;5092206;28;20188;-81
2023/01/27 05:08:41;;;;;;;16.40;9.40;;;;;;;0.85;71.07;99769.38;5090904;28;20259;-80
2023/01/27 05:11:06;;;;;;;15.30;9.53;;;;;;;0.83;71.49;99771.13;5091631;28;20236;-80
2023/01/27 05:13:32;;;;;;;19.53;10.30;;;;;;;0.83;71.28;99773.72;5098294;28;20534;-82
2023/01/27 05:16:05;;;;;;;14.23;8.27;;;;;;;0.83;71.40;99765.94;5091578;28;20673;-81
2023/01/27 05:18:30;;;;;;;12.20;9.45;;;;;;;0.81;71.51;99778.06;5091757;28;20509;-80
2023/01/27 05:20:59;;;;;;;19.10;9.67;;;;;;;0.82;71.32;99779.78;5094366;28;20204;-79
2023/01/27 05:23:36;;;;;;;14.48;8.73;;;;;;;0.81;71.33;99780.63;5091772;28;20212;-80
2023/01/27 05:26:17;;;;;;;18.20;9.68;;;;;;;0.83;71.39;99779.72;5092120;28;20206;-80
2023/01/27 05:28:45;;;;;;;12.02;8.95;;;;;;;0.86;71.59;99781.41;5089871;28;20200;-80
2023/01/27 05:31:13;;;;;;;15.07;10.07;;;;;;;0.87;71.31;99780.53;5096938;28;20225;-79
2023/01/27 05:33:40;;;;;;;21.60;9.05;;;;;;;0.86;71.09;99774.50;5091803;28;20206;-82
2023/01/27 05:36:07;;;;;;;17.80;10.70;;;;;;;0.88;71.38;99784.81;5092058;28;20196;-81
2023/01/27 05:38:33;;;;;;;13.57;8.32;;;;;;;0.88;71.09;99789.97;5093108;28;20211;-81
2023/01/27 05:41:02;;;;;;;16.70;9.83;;;;;;;0.88;71.11;99779.63;5089082;28;20302;-80
2023/01/27 05:43:32;;;;;;;16.30;9.32;;;;;;;0.89;71.23;99789.09;5090762;28;20456;-80
2023/01/27 05:46:06;;;;;;;20.02;10.68;;;;;;;0.86;71.41;99792.63;5090121;28;20220;-82
2023/01/27 05:48:33;;;;;;;15.55;9.65;;;;;;;0.85;71.43;99803.81;5088076;28;20208;-81
2023/01/27 05:50:58;;;;;;;18.20;10.00;;;;;;;0.84;71.32;99802.13;5092044;28;20220;-80
2023/01/27 05:53:24;;;;;;;15.53;9.10;;;;;;;0.81;71.48;99797.03;5092604;28;20508;-82
2023/01/27 05:55:50;;;;;;;16.30;9.60;;;;;;;0.80;71.53;99799.63;5091065;28;20242;-80
2023/01/27 05:58:16;;;;;;;15.73;10.00;;;;;;;0.78;71.53;99791.91;5093283;28;20477;-80
2023/01/27 06:00:41;;;;;;;12.73;8.10;;;;;;;0.78;71.58;99798.81;5082182;28;20572;-81
2023/01/27 06:03:07;;;;;;;18.33;10.23;;;;;;;0.76;71.48;99792.84;5049752;28;20677;-80
2023/01/27 06:05:32;;;;;;;18.70;10.03;;;;;;;0.77;71.56;99791.94;5052619;28;20450;-80
2023/01/27 06:07:58;;;;;;;15.67;10.30;;;;;;;0.75;71.72;99789.38;5050406;28;20303;-80
2023/01/27 06:10:23;;;;;;;20.73;10.93;;;;;;;0.76;71.79;99798.00;5050789;28;20216;-80
2023/01/27 06:12:48;;;;;;;19.93;10.33;;;;;;;0.77;71.79;99797.13;5050962;28;20288;-80
2023/01/27 06:15:14;;;;;;;17.00;11.93;;;;;;;0.72;71.70;99802.38;5048922;28;20212;-79
2023/01/27 06:17:39;;;;;;;19.23;9.03;;;;;;;0.74;71.80;99799.78;5050146;28;20310;-80
2023/01/27 06:20:05;;;;;;;19.90;12.53;;;;;;;0.75;71.89;99807.47;5044425;28;20292;-77
2023/01/27 06:22:36;;;;;;;16.00;9.57;;;;;;;0.78;71.80;99802.25;5053826;23;20249;-91
2023/01/27 06:25:05;;;;;;;19.73;11.65;;;;;;;0.79;71.90;99803.97;5025795;28;20258;-92
2023/01/27 06:27:45;;;;;;;;;;;;;;;;;;;;;
2023/01/27 06:30:27;;;;;;;;;;;;;;;;;;;;;
2023/01/27 06:33:44;;;;;;;19.77;11.05;;;;;;;0.75;72.10;99816.97;5037184;28;20207;-91
2023/01/27 06:36:28;;;;;;;23.35;16.05;;;;;;;0.81;72.74;99814.25;5035690;28;20620;-91
2023/01/27 06:38:58;;;;;;;20.25;10.95;;;;;;;0.80;72.49;99803.06;5037531;28;20202;-91
2023/01/27 06:41:56;;;;;;;18.50;11.27;;;;;;;0.78;72.51;99801.41;5037095;28;20424;-90
2023/01/27 06:45:02;;;;;;;;;;;;;;;;;;;;;
2023/01/27 06:47:43;;;;;;;16.83;10.68;;;;;;;0.76;72.46;99810.94;5035997;28;20194;-91
2023/01/27 06:50:16;;;;;;;12.77;9.93;;;;;;;0.76;72.14;99814.38;4984394;28;20235;-91
2023/01/27 06:52:47;;;;;;;14.93;9.88;;;;;;;0.74;71.98;99810.09;5011008;28;20226;-91
2023/01/27 06:55:23;;;;;;;;;;;;;;;;;;;;;
2023/01/27 06:58:13;;;;;;;19.33;10.23;;;;;;;0.73;72.01;99822.19;5010787;28;20731;-92
2023/01/27 07:00:51;;;;;;;14.43;9.60;;;;;;;0.70;72.15;99816.22;5013112;28;20213;-89
2023/01/27 07:03:25;;;;;;;18.45;12.30;;;;;;;0.71;72.12;99815.34;5001452;28;20752;-90
2023/01/27 07:06:01;;;;;;;16.75;11.82;;;;;;;0.73;72.18;99826.47;4995557;28;20218;-91
2023/01/27 07:08:55;;;;;;;;;;;;;;;;;;;;;
2023/01/27 07:11:37;;;;;;;20.08;12.35;;;;;;;0.74;72.12;99833.38;5013249;28;20471;-91
2023/01/27 07:14:05;;;;;;;14.80;10.73;;;;;;;0.73;72.10;99832.53;4994939;28;20302;-90
2023/01/27 07:16:54;;;;;;;19.20;12.60;;;;;;;0.74;71.91;99835.97;5014123;28;20221;-90
2023/01/27 07:19:27;;;;;;;17.58;10.32;;;;;;;0.71;71.94;99836.03;4995387;28;20244;-93
2023/01/27 07:22:07;;;;;;;;;;;;;;;;;;;;;
2023/01/27 07:24:59;;;;;;;;;;;;;;;;;;;;;
2023/01/27 07:27:47;;;;;;;25.20;12.45;;;;;;;0.68;71.96;99849.88;4974469;28;20220;-93
2023/01/27 07:30:38;;;;;;;18.90;12.32;;;;;;;0.68;72.11;99849.88;4956661;28;20207;-92
2023/01/27 07:33:19;;;;;;;19.60;11.98;;;;;;;0.69;72.05;99848.13;4974050;28;20569;-92
2023/01/27 07:36:07;;;;;;;26.15;12.50;;;;;;;0.71;71.94;99842.03;4986680;28;20258;-89
2023/01/27 07:38:38;;;;;;;24.20;12.43;;;;;;;0.74;72.23;99846.31;4974460;28;20239;-92
2023/01/27 07:41:11;;;;;;;22.25;12.30;;;;;;;0.76;72.00;99847.13;4973848;28;20220;-91
2023/01/27 07:46:31;;;;;;;22.40;13.63;;;;;;;0.81;71.80;99851.34;4971055;28;20210;-90
2023/01/27 07:49:18;;;;;;;;;;;;;;;;;;;;;
2023/01/27 07:52:02;;;;;;;;;;;;;;;;;;;;;
2023/01/27 07:55:00;;;;;;;17.80;11.75;;;;;;;0.83;71.85;99856.47;4994423;28;20281;-92
2023/01/27 07:57:42;;;;;;;;;;;;;;;;;;;;;
2023/01/27 08:00:41;;;;;;;24.92;13.68;;;;;;;0.86;71.64;99857.25;4993823;28;20765;-90
2023/01/27 08:03:32;;;;;;;;;;;;;;;;;;;;;
2023/01/27 08:06:32;;;;;;;;;;;;;;;;;;;;;
2023/01/27 08:09:08;;;;;;;20.63;13.50;;;;;;;0.91;71.85;99864.91;4994388;28;20417;-91
2023/01/27 08:12:03;;;;;;;26.35;14.63;;;;;;;0.93;71.56;99860.56;4993848;28;20292;-93
2023/01/27 08:14:38;;;;;;;15.13;11.27;;;;;;;0.92;71.52;99856.28;4987158;28;20209;-92
2023/01/27 08:17:24;;;;;;;;;;;;;;;;;;;;;
2023/01/27 08:19:53;;;;;;;17.00;10.90;;;;;;;0.91;71.70;99866.66;4993111;28;20202;-92
2023/01/27 08:22:50;;;;;;;;;;;;;;;;;;;;;
2023/01/27 08:26:21;;;;;;;23.63;14.02;;;;;;;0.95;71.46;99878.66;4992571;28;20256;-92
2023/01/27 08:28:48;;;;;;;20.50;11.70;;;;;;;0.98;71.44;99879.44;5004805;28;20569;-92
2023/01/27 08:31:54;;;;;;;;;;;;;;;;;;;;;
2023/01/27 08:35:08;;;;;;;20.95;11.65;;;;;;;1.06;71.58;99887.88;4928424;28;20730;-92
2023/01/27 08:37:47;;;;;;;;;;;;;;;;;;;;;
2023/01/27 08:40:39;;;;;;;;;;;;;;;;;;;;;
2023/01/27 08:43:40;;;;;;;;;;;;;;;;;;;;;
2023/01/27 08:46:37;;;;;;;18.00;10.98;;;;;;;1.23;70.79;99907.38;4947896;28;20314;-91
2023/01/27 08:49:55;;;;;;;;;;;;;;;;;;;;;
2023/01/27 08:52:41;;;;;;;21.50;12.40;;;;;;;1.27;70.99;99901.25;5079843;23;20248;-80
2023/01/27 08:55:06;;;;;;;14.57;10.60;;;;;;;1.28;70.84;99906.41;5087640;28;20208;-80
2023/01/27 08:57:32;;;;;;;14.67;9.10;;;;;;;1.28;70.58;99905.56;5088947;28;20271;-80
2023/01/27 08:59:57;;;;;;;20.33;11.20;;;;;;;1.25;70.96;99903.88;5087950;28;20208;-80
2023/01/27 09:02:23;;;;;;;20.63;12.00;;;;;;;1.24;70.89;99893.56;5088067;28;20269;-80
2023/01/27 09:04:49;;;;;;;17.60;11.77;;;;;;;1.24;70.84;99903.91;5085412;28;20204;-80
2023/01/27 09:07:15;;;;;;;16.90;10.60;;;;;;;1.27;70.97;99901.25;5071161;28;20211;-80
2023/01/27 09:09:40;;;;;;;20.87;11.20;;;;;;;1.30;70.75;99894.28;5086184;28;20196;-80
2023/01/27 09:12:06;;;;;;;17.53;10.20;;;;;;;1.34;70.42;99897.66;5085233;28;20236;-80
2023/01/27 09:14:32;;;;;;;20.03;10.90;;;;;;;1.35;70.22;99894.19;5086728;28;20236;-80
2023/01/27 09:16:58;;;;;;;19.98;11.07;;;;;;;1.37;70.03;99894.16;5086864;28;20222;-79
2023/01/27 09:19:23;;;;;;;16.47;9.27;;;;;;;1.41;70.34;99896.66;5088223;28;20668;-80
2023/01/27 09:21:49;;;;;;;16.53;10.47;;;;;;;1.47;70.30;99896.50;5086662;28;20211;-80
2023/01/27 09:24:16;;;;;;;17.53;9.93;;;;;;;1.53;69.96;99893.78;5087736;28;20287;-80
2023/01/27 09:26:42;;;;;;;20.10;9.32;;;;;;;1.60;69.55;99891.06;5088342;28;20612;-80
2023/01/27 09:29:08;;;;;;;15.63;8.85;;;;;;;1.64;69.62;99887.50;5087581;28;20716;-80
2023/01/27 09:31:33;;;;;;;17.27;9.83;;;;;;;1.67;69.20;99890.03;5086866;28;20228;-80
2023/01/27 09:33:59;;;;;;;12.37;8.90;;;;;;;1.72;69.12;99899.41;5085248;28;20277;-80
2023/01/27 09:36:26;;;;;;;16.40;8.80;;;;;;;1.79;68.94;99894.94;5084139;28;20703;-80
2023/01/27 09:39:14;;;;;;;18.00;11.25;;;;;;;1.83;68.91;99901.75;5085630;28;20200;-80
2023/01/27 09:42:04;;;;;;;13.80;8.43;;;;;;;1.91;68.59;99901.56;5082848;28;20273;-80
2023/01/27 09:44:48;;;;;;;10.10;7.07;;;;;;;1.95;68.45;99909.25;5085048;28;20844;-80
2023/01/27 09:47:40;;;;;;;7.80;5.45;;;;;;;1.96;67.32;99905.75;5083679;28;20190;-80
2023/01/27 09:50:19;;;;;;;10.98;5.68;;;;;;;1.99;66.90;99910.00;5089739;28;20769;-80
2023/01/27 09:52:47;;;;;;;9.23;5.38;;;;;;;2.01;66.10;99905.66;5090843;28;20252;-80
2023/01/27 09:55:20;;;;;;;9.07;5.28;;;;;;;2.05;65.80;99901.22;5067803;28;20825;-80
2023/01/27 09:58:02;;;;;;;12.23;5.38;;;;;;;2.10;65.40;99913.19;5089500;28;20266;-80
2023/01/27 10:00:31;;;;;;;5.32;4.40;;;;;;;2.15;65.59;99913.09;5078019;28;20309;-80
2023/01/27 10:03:27;;;;;;;5.95;4.80;;;;;;;2.20;64.76;99908.66;5084827;28;20769;-80
2023/01/27 10:06:23;;;;;;;8.27;4.97;;;;;;;2.18;64.31;99916.44;5086288;28;20208;-80
2023/01/27 10:09:23;;;;;;;7.35;5.30;;;;;;;2.20;63.82;99914.66;5087645;28;20210;-79
2023/01/27 10:11:58;;;;;;;7.07;4.68;;;;;;;2.25;64.32;99911.13;5087306;28;20224;-80
2023/01/27 10:14:48;;;;;;;14.43;6.15;;;;;;;2.31;63.71;99913.56;5090188;28;20199;-80
2023/01/27 10:17:19;;;;;;;12.27;5.65;;;;;;;2.35;63.62;99913.47;5087839;28;20236;-80
2023/01/27 10:20:13;;;;;;;8.88;5.57;;;;;;;2.30;62.77;99915.31;5088541;28;20224;-80
2023/01/27 10:22:48;;;;;;;10.00;5.53;;;;;;;2.06;62.19;99914.16;5087612;28;20223;-80
2023/01/27 10:25:19;;;;;;;8.48;5.10;;;;;;;2.12;62.27;99920.94;5088899;28;20210;-80
2023/01/27 10:27:54;;;;;;;7.70;5.57;;;;;;;2.11;62.51;99917.50;5087685;28;20221;-80
2023/01/27 10:30:34;;;;;;;7.70;4.22;;;;;;;2.11;62.47;99924.44;5088739;28;20290;-80
2023/01/27 10:33:05;;;;;;;12.70;6.95;;;;;;;1.98;62.47;99916.94;5088772;28;20224;-80
2023/01/27 10:35:36;;;;;;;10.20;7.85;;;;;;;1.94;62.48;99911.84;5089589;28;20839;-80
2023/01/27 10:38:40;;;;;;;12.45;5.68;;;;;;;2.08;62.70;99916.69;5087780;28;20226;-80
2023/01/27 10:41:16;;;;;;;10.30;5.85;;;;;;;2.09;62.05;99914.09;5089452;28;20212;-80
2023/01/27 10:43:58;;;;;;;10.63;5.68;;;;;;;2.15;62.15;99910.50;5089469;28;20565;-80
2023/01/27 10:46:49;;;;;;;8.98;4.60;;;;;;;2.13;61.80;99900.19;5089311;28;20291;-80
2023/01/27 10:49:23;;;;;;;9.10;5.60;;;;;;;2.10;62.11;99895.03;5089409;28;20228;-80
2023/01/27 10:52:14;;;;;;;9.65;4.65;;;;;;;2.16;61.69;99894.91;5088775;28;20243;-80
2023/01/27 10:54:57;;;;;;;8.35;4.25;;;;;;;2.24;61.72;99886.09;5089998;28;20214;-80
2023/01/27 10:57:32;;;;;;;9.80;4.35;;;;;;;2.25;61.65;99886.06;5088592;28;20228;-80
2023/01/27 11:00:05;;;;;;;7.50;5.18;;;;;;;2.31;61.24;99891.06;5088698;28;20215;-80
2023/01/27 11:02:36;;;;;;;10.85;5.90;;;;;;;2.37;61.67;99883.13;5088604;28;20224;-80
2023/01/27 11:05:08;;;;;;;15.63;6.30;;;;;;;2.41;61.22;99877.00;5089626;28;20211;-80
2023/01/27 11:07:45;;;;;;;24.02;11.02;;;;;;;2.50;60.89;99867.28;5087683;28;20295;-80
2023/01/27 11:10:19;;;;;;;13.60;6.90;;;;;;;2.58;61.03;99870.50;5088867;28;21025;-79
2023/01/27 11:12:49;;;;;;;11.65;7.22;;;;;;;2.63;60.78;99869.50;5089529;28;20365;-80
2023/01/27 11:15:33;;;;;;;9.55;4.68;;;;;;;2.69;60.29;99872.81;5091388;28;20241;-80
2023/01/27 11:18:24;;;;;;;8.48;5.28;;;;;;;2.68;59.85;99869.38;5089234;28;21122;-80
2023/01/27 11:20:52;;;;;;;7.82;4.15;;;;;;;2.71;60.05;99858.06;5087618;28;20555;-80
2023/01/27 11:23:26;;;;;;;7.28;5.00;;;;;;;2.75;59.97;99850.16;5087428;28;20969;-80
2023/01/27 11:26:02;;;;;;;6.05;4.72;;;;;;;2.84;59.78;99878.44;5087022;28;20207;-80
2023/01/27 11:28:39;;;;;;;12.05;7.68;;;;;;;2.86;59.78;99883.56;5088069;28;20514;-80
2023/01/27 11:31:41;;;;;;;9.15;5.40;;;;;;;2.83;59.63;99888.84;5088146;28;20200;-80
2023/01/27 11:34:20;;;;;;;8.38;6.00;;;;;;;2.66;59.45;99897.09;5088813;28;20245;-80
2023/01/27 11:36:46;;;;;;;9.52;4.43;;;;;;;2.63;59.68;99900.63;5089855;28;20224;-80
2023/01/27 11:39:14;;;;;;;8.50;5.18;;;;;;;2.61;59.67;99886.00;5053866;28;20664;-80
2023/01/27 11:41:47;;;;;;;8.88;5.65;;;;;;;2.57;59.51;99885.22;5087891;28;20222;-80
2023/01/27 11:44:23;;;;;;;12.20;6.10;;;;;;;2.50;60.02;99890.63;5087829;28;20857;-80
2023/01/27 11:46:49;;;;;;;7.40;4.18;;;;;;;2.55;59.79;99893.94;5086805;28;20212;-80
2023/01/27 11:49:21;;;;;;;7.53;5.30;;;;;;;2.44;59.47;99884.69;5089618;28;20260;-80
2023/01/27 11:51:48;;;;;;;6.53;5.10;;;;;;;2.42;59.75;99873.50;5087274;28;20236;-80
2023/01/27 11:54:13;;;;;;;6.05;2.72;;;;;;;2.54;59.65;99877.53;5091132;28;20201;-80
2023/01/27 11:56:41;;;;;;;4.80;4.03;;;;;;;2.57;59.45;99879.19;5088268;28;20232;-80
2023/01/27 11:59:24;;;;;;;7.45;4.28;;;;;;;2.59;59.15;99870.50;5090541;28;20291;-80
2023/01/27 12:02:21;;;;;;;9.25;5.82;;;;;;;2.57;59.25;99874.00;5088706;28;20203;-80
2023/01/27 12:05:13;;;;;;;9.80;5.80;;;;;;;2.81;58.67;99865.56;5087896;28;20562;-80
2023/01/27 12:07:45;;;;;;;7.25;4.25;;;;;;;2.91;58.23;99862.69;5089001;28;20206;-80
2023/01/27 12:10:34;;;;;;;4.45;4.05;;;;;;;2.98;57.99;99864.25;5089960;28;20232;-79
2023/01/27 12:13:07;;;;;;;3.33;2.20;;;;;;;3.01;57.44;99857.22;5092145;28;20267;-79
2023/01/27 12:15:34;;;;;;;8.10;3.50;;;;;;;3.09;57.07;99862.19;5078098;28;20204;-80
2023/01/27 12:18:07;;;;;;;3.15;2.75;;;;;;;3.16;56.99;99855.94;5087342;28;20226;-80
2023/01/27 12:20:37;;;;;;;4.95;3.78;;;;;;;3.18;56.57;99859.31;5089249;28;20224;-80
2023/01/27 12:23:52;;;;;;;4.60;3.72;;;;;;;3.20;57.12;99854.94;5122881;23;20304;-78
2023/01/27 12:26:33;;;;;;;8.20;5.18;;;;;;;3.22;56.32;99847.09;4995898;28;20564;-78
2023/01/27 12:29:03;;;;;;;4.10;3.03;;;;;;;3.25;56.33;99853.03;5034761;28;20239;-80
2023/01/27 12:31:31;;;;;;;6.00;4.57;;;;;;;3.23;56.76;99844.44;5034398;28;20858;-79
2023/01/27 12:34:01;;;;;;;6.63;4.18;;;;;;;3.34;56.32;99833.75;5047054;28;20434;-79
2023/01/27 12:36:27;;;;;;;5.18;4.10;;;;;;;3.39;56.07;99828.41;5054702;28;20671;-80
2023/01/27 12:38:59;;;;;;;6.53;4.38;;;;;;;3.45;56.37;99825.63;5053867;28;20748;-80
2023/01/27 12:41:31;;;;;;;3.95;2.70;;;;;;;3.48;55.92;99815.13;5033362;28;20679;-80
2023/01/27 12:44:18;;;;;;;3.45;2.50;;;;;;;3.49;55.73;99816.84;5055723;28;20317;-80
2023/01/27 12:47:16;;;;;;;4.50;3.30;;;;;;;3.46;55.43;99822.16;5053291;28;20267;-79
2023/01/27 12:49:43;;;;;;;4.75;3.65;;;;;;;3.43;55.69;99828.28;5057659;28;20773;-80
2023/01/27 12:52:18;;;;;;;7.13;4.30;;;;;;;3.36;55.67;99831.09;5053811;28;20216;-78
2023/01/27 12:54:45;;;;;;;4.90;3.10;;;;;;;3.35;55.48;99831.97;5047367;28;20273;-78
2023/01/27 12:57:20;;;;;;;5.10;2.80;;;;;;;3.30;55.52;99827.81;5046426;28;20223;-78
2023/01/27 12:59:55;;;;;;;4.25;3.28;;;;;;;3.32;55.69;99828.59;5054046;28;20239;-77